createdAt,value
2022-08-05T00:04:08.555Z,1012.07
2022-08-05T00:14:17.149Z,1012.05
2022-08-05T00:24:30.743Z,1012.07
2022-08-05T00:34:56.407Z,1012.02
2022-08-05T00:44:47.174Z,1012.00
2022-08-05T00:54:54.089Z,1011.93
2022-08-05T01:05:02.491Z,1011.99
2022-08-05T01:15:35.134Z,1012.12
2022-08-05T01:25:40.008Z,1012.22
2022-08-05T01:35:52.061Z,1012.31
2022-08-05T01:45:56.082Z,1012.18
2022-08-05T01:56:04.530Z,1012.16
2022-08-05T02:06:33.240Z,1012.19
2022-08-05T02:16:23.659Z,1012.15
2022-08-05T02:26:30.668Z,1012.08
2022-08-05T02:36:37.804Z,1012.07
2022-08-05T02:46:58.637Z,1012.10
2022-08-05T02:56:56.394Z,1012.07
2022-08-05T03:07:03.043Z,1012.03
2022-08-05T03:17:10.365Z,1012.02
2022-08-05T03:27:19.991Z,1011.96
2022-08-05T03:37:27.344Z,1011.92
2022-08-05T03:47:35.572Z,1011.90
2022-08-05T03:57:46.802Z,1012.01
2022-08-05T04:07:57.867Z,1012.07
2022-08-05T04:18:06.867Z,1012.12
2022-08-05T04:28:14.330Z,1012.00
2022-08-05T04:38:22.293Z,1011.85
2022-08-05T04:48:34.264Z,1012.15
2022-08-05T04:58:41.099Z,1012.39
2022-08-05T05:08:49.994Z,1012.33
2022-08-05T05:19:19.530Z,1012.34
2022-08-05T05:29:14.313Z,1012.29
2022-08-05T05:39:20.772Z,1012.53
2022-08-05T05:49:27.708Z,1013.02
2022-08-05T05:59:40.186Z,1012.73
2022-08-05T06:10:00.247Z,1013.28
2022-08-05T06:19:59.543Z,1013.31
2022-08-05T06:30:18.096Z,1013.64
2022-08-05T06:40:21.093Z,1013.63
2022-08-05T06:50:28.082Z,1013.48
2022-08-05T07:00:36.443Z,1013.49
2022-08-05T07:10:53.073Z,1013.45
2022-08-05T07:21:04.804Z,1013.64
2022-08-05T07:31:12.584Z,1013.89
2022-08-05T07:42:14.193Z,1013.92
2022-08-05T07:51:41.094Z,1013.82
2022-08-05T08:01:52.212Z,1013.87
2022-08-05T08:12:09.330Z,1013.73
2022-08-05T08:22:15.975Z,1013.91
2022-08-05T08:32:27.736Z,1013.56
2022-08-05T08:42:50.531Z,1013.92
2022-08-05T08:52:51.755Z,1014.25
2022-08-05T09:02:59.350Z,1014.25
2022-08-05T09:13:06.730Z,1014.13
2022-08-05T09:23:18.667Z,1014.62
2022-08-05T09:33:34.926Z,1014.54
2022-08-05T09:43:41.120Z,1014.88
2022-08-05T09:53:53.461Z,1014.73
2022-08-05T10:04:00.820Z,1014.47
2022-08-05T10:14:07.174Z,1014.34
2022-08-05T10:24:17.919Z,1014.01
2022-08-05T10:34:25.604Z,1014.34
2022-08-05T10:44:37.122Z,1014.81
2022-08-05T10:54:47.154Z,1014.63
2022-08-05T11:04:57.694Z,1014.68
2022-08-05T11:15:19.130Z,1014.27
2022-08-05T11:26:03.000Z,1014.58
2022-08-05T11:35:28.665Z,1014.83
2022-08-05T11:46:23.496Z,1014.74
2022-08-05T11:55:52.693Z,1014.91
2022-08-05T12:06:00.456Z,1014.87
2022-08-05T12:16:14.999Z,1014.75
2022-08-05T12:26:19.665Z,1014.93
2022-08-05T12:36:26.659Z,1014.82
2022-08-05T12:46:34.617Z,1014.76
2022-08-05T12:56:42.429Z,1014.80
2022-08-05T13:06:52.225Z,1014.81
2022-08-05T13:17:00.019Z,1014.67
2022-08-05T13:27:11.230Z,1014.73
2022-08-05T13:37:27.208Z,1014.72
2022-08-05T13:47:35.971Z,1014.70
2022-08-05T13:57:50.719Z,1014.66
2022-08-05T14:08:05.512Z,1014.86
2022-08-05T14:18:14.907Z,1014.69
2022-08-05T14:28:26.466Z,1014.81
2022-08-05T14:38:34.319Z,1015.02
2022-08-05T14:48:42.583Z,1014.93
2022-08-05T14:58:53.251Z,1014.98
2022-08-05T15:09:03.611Z,1014.97
2022-08-05T15:19:23.475Z,1015.01
2022-08-05T15:29:22.850Z,1015.00
2022-08-05T15:41:04.619Z,1015.13
2022-08-05T15:49:56.770Z,1015.20
2022-08-05T15:59:57.625Z,1015.46
2022-08-05T16:10:05.042Z,1015.40
2022-08-05T16:20:16.986Z,1015.65
2022-08-05T16:30:28.855Z,1015.79
2022-08-05T16:40:35.971Z,1016.10
2022-08-05T16:50:43.132Z,1016.48
2022-08-05T17:00:49.519Z,1016.29
2022-08-05T17:10:55.867Z,1016.41
2022-08-05T17:21:02.798Z,1016.85
2022-08-05T17:31:24.549Z,1017.09
2022-08-05T17:42:16.424Z,1017.19
2022-08-05T17:51:40.351Z,1017.38
2022-08-05T18:01:50.237Z,1017.66
2022-08-05T18:11:59.017Z,1018.03
2022-08-05T18:22:07.283Z,1017.98
2022-08-05T18:32:16.855Z,1018.17
2022-08-05T18:42:24.753Z,1018.38
2022-08-05T18:52:35.856Z,1018.45
2022-08-05T19:02:43.344Z,1018.67
2022-08-05T19:12:50.902Z,1018.84
2022-08-05T19:22:57.426Z,1018.84
2022-08-05T19:33:06.386Z,1019.16
2022-08-05T19:44:45.058Z,1019.31
2022-08-05T19:54:48.355Z,1019.49
2022-08-05T20:04:55.364Z,1019.61
2022-08-05T20:15:05.155Z,1019.61
2022-08-05T20:25:16.007Z,1019.69
2022-08-05T20:35:23.680Z,1019.85
2022-08-05T20:45:47.667Z,1020.15
2022-08-05T20:55:56.564Z,1020.43
2022-08-05T21:05:56.276Z,1020.55
2022-08-05T21:16:06.133Z,1020.73
2022-08-05T21:26:15.046Z,1020.86
2022-08-05T21:36:29.995Z,1020.84
2022-08-05T21:46:34.958Z,1020.82
2022-08-05T21:56:44.700Z,1020.85
2022-08-05T22:06:56.994Z,1021.11
2022-08-05T22:17:05.289Z,1021.04
2022-08-05T22:27:16.594Z,1021.30
2022-08-05T22:37:24.547Z,1021.38
2022-08-05T22:47:35.875Z,1021.47
2022-08-05T22:57:49.104Z,1021.47
2022-08-05T23:07:55.629Z,1021.47
2022-08-05T23:18:03.612Z,1021.50
2022-08-05T23:28:12.501Z,1021.62
2022-08-05T23:38:18.984Z,1021.80
2022-08-05T23:48:26.413Z,1021.89
2022-08-05T23:58:32.923Z,1021.92
